Tinogasta, Argentina
Current Conditions -  °F | °C
As of 11:00 AM on Monday 24 Nov 2014 (Local Time) from SANT Reporting Station
Clear Clear  
Wind Chill: 84°   Ceiling: Unl
Heat Index: 86°   Visibility: 6mi
Dew Point: 66°   Wind: 5mph
Humidity: 55%   Direction: 180°S
Pressure: 29.71"   Gusts: NA
Location:  28.07°S, 67.56°W
Report Text: SANT 241400Z 18004KT CAVOK 29/19 Q1006
Loading
Personal Weather Stations






























Interactive Weather Map New forecast layout! Learn more

10-Day Weather Forecast

Advertisements
Track Severe Weather on mobile